sensor_id;sensor_type;location;lat;lon;timestamp;pressure;altitude;pressure_sealevel;temperature;humidity
4617;BME280;2321;42.704;23.384;2022-09-12T00:01:44;95225.53;;;16.58;nan
4617;BME280;2321;42.704;23.384;2022-09-12T00:04:11;95233.03;;;16.55;nan
4617;BME280;2321;42.704;23.384;2022-09-12T00:06:38;95233.72;;;16.51;nan
4617;BME280;2321;42.704;23.384;2022-09-12T00:09:08;95231.50;;;16.48;nan
4617;BME280;2321;42.704;23.384;2022-09-12T00:11:36;95238.63;;;16.42;nan
4617;BME280;2321;42.704;23.384;2022-09-12T00:14:04;95249.72;;;16.33;nan
4617;BME280;2321;42.704;23.384;2022-09-12T00:16:33;95254.47;;;16.31;nan
4617;BME280;2321;42.704;23.384;2022-09-12T00:19:01;95252.97;;;16.36;nan
4617;BME280;2321;42.704;23.384;2022-09-12T00:21:28;95252.16;;;16.35;nan
4617;BME280;2321;42.704;23.384;2022-09-12T00:23:55;95252.41;;;16.33;nan
4617;BME280;2321;42.704;23.384;2022-09-12T00:26:24;95259.19;;;16.36;nan
4617;BME280;2321;42.704;23.384;2022-09-12T00:28:51;95242.47;;;16.34;nan
4617;BME280;2321;42.704;23.384;2022-09-12T00:31:20;95251.34;;;16.34;nan
4617;BME280;2321;42.704;23.384;2022-09-12T00:33:48;95248.31;;;16.31;nan
4617;BME280;2321;42.704;23.384;2022-09-12T00:36:17;95244.25;;;16.28;nan
4617;BME280;2321;42.704;23.384;2022-09-12T00:38:45;95248.44;;;16.24;nan
4617;BME280;2321;42.704;23.384;2022-09-12T00:41:15;95250.19;;;16.18;nan
4617;BME280;2321;42.704;23.384;2022-09-12T00:43:46;95234.63;;;16.08;nan
4617;BME280;2321;42.704;23.384;2022-09-12T00:46:22;95249.81;;;16.15;nan
4617;BME280;2321;42.704;23.384;2022-09-12T00:48:55;95240.00;;;16.08;nan
4617;BME280;2321;42.704;23.384;2022-09-12T00:51:25;95247.28;;;16.01;nan
4617;BME280;2321;42.704;23.384;2022-09-12T00:53:54;95248.94;;;16.02;nan
4617;BME280;2321;42.704;23.384;2022-09-12T00:56:22;95254.78;;;15.99;nan
4617;BME280;2321;42.704;23.384;2022-09-12T00:58:55;95245.44;;;16.01;nan
4617;BME280;2321;42.704;23.384;2022-09-12T01:01:23;95235.50;;;16.02;nan
4617;BME280;2321;42.704;23.384;2022-09-12T01:03:50;95234.56;;;15.96;nan
4617;BME280;2321;42.704;23.384;2022-09-12T01:06:20;95233.28;;;15.99;nan
4617;BME280;2321;42.704;23.384;2022-09-12T01:08:48;95233.28;;;15.99;nan
4617;BME280;2321;42.704;23.384;2022-09-12T01:11:17;95230.69;;;15.92;nan
4617;BME280;2321;42.704;23.384;2022-09-12T01:13:45;95236.69;;;15.94;nan
4617;BME280;2321;42.704;23.384;2022-09-12T01:16:15;95238.53;;;15.94;nan
4617;BME280;2321;42.704;23.384;2022-09-12T01:18:54;95235.25;;;15.92;nan
4617;BME280;2321;42.704;23.384;2022-09-12T01:21:32;95227.31;;;15.85;nan
4617;BME280;2321;42.704;23.384;2022-09-12T01:30:31;95229.28;;;15.77;nan
4617;BME280;2321;42.704;23.384;2022-09-12T01:38:57;95230.78;;;15.73;nan
4617;BME280;2321;42.704;23.384;2022-09-12T01:41:27;95234.97;;;15.69;nan
4617;BME280;2321;42.704;23.384;2022-09-12T01:44:01;95221.31;;;15.71;nan
4617;BME280;2321;42.704;23.384;2022-09-12T01:46:40;95235.81;;;15.70;nan
4617;BME280;2321;42.704;23.384;2022-09-12T01:49:12;95229.03;;;15.67;nan
4617;BME280;2321;42.704;23.384;2022-09-12T01:51:44;95231.94;;;15.65;nan
4617;BME280;2321;42.704;23.384;2022-09-12T01:54:17;95216.66;;;15.66;nan
4617;BME280;2321;42.704;23.384;2022-09-12T01:56:48;95221.19;;;15.65;nan
4617;BME280;2321;42.704;23.384;2022-09-12T01:59:22;95212.19;;;15.60;nan
4617;BME280;2321;42.704;23.384;2022-09-12T02:01:56;95214.63;;;15.61;nan
4617;BME280;2321;42.704;23.384;2022-09-12T02:04:28;95211.38;;;15.59;nan
4617;BME280;2321;42.704;23.384;2022-09-12T02:07:00;95225.81;;;15.58;nan
4617;BME280;2321;42.704;23.384;2022-09-12T02:09:30;95224.22;;;15.57;nan
4617;BME280;2321;42.704;23.384;2022-09-12T02:12:03;95227.09;;;15.55;nan
4617;BME280;2321;42.704;23.384;2022-09-12T02:14:36;95223.03;;;15.53;nan
4617;BME280;2321;42.704;23.384;2022-09-12T02:17:09;95229.09;;;15.48;nan
4617;BME280;2321;42.704;23.384;2022-09-12T02:19:40;95228.03;;;15.49;nan
4617;BME280;2321;42.704;23.384;2022-09-12T02:22:11;95229.75;;;15.43;nan
4617;BME280;2321;42.704;23.384;2022-09-12T02:24:43;95221.94;;;15.42;nan
4617;BME280;2321;42.704;23.384;2022-09-12T02:27:14;95229.03;;;15.36;nan
4617;BME280;2321;42.704;23.384;2022-09-12T02:29:43;95230.06;;;15.35;nan
4617;BME280;2321;42.704;23.384;2022-09-12T02:32:18;95230.28;;;15.33;nan
4617;BME280;2321;42.704;23.384;2022-09-12T02:34:51;95234.09;;;15.25;nan
4617;BME280;2321;42.704;23.384;2022-09-12T02:37:24;95235.31;;;15.30;nan
4617;BME280;2321;42.704;23.384;2022-09-12T02:39:56;95237.38;;;15.28;nan
4617;BME280;2321;42.704;23.384;2022-09-12T02:42:24;95235.75;;;15.27;nan
4617;BME280;2321;42.704;23.384;2022-09-12T02:44:53;95235.31;;;15.30;nan
4617;BME280;2321;42.704;23.384;2022-09-12T02:47:26;95233.91;;;15.27;nan
4617;BME280;2321;42.704;23.384;2022-09-12T02:49:55;95242.28;;;15.31;nan
4617;BME280;2321;42.704;23.384;2022-09-12T02:52:22;95238.00;;;15.30;nan
4617;BME280;2321;42.704;23.384;2022-09-12T02:54:50;95241.72;;;15.29;nan
4617;BME280;2321;42.704;23.384;2022-09-12T02:57:18;95245.59;;;15.33;nan
4617;BME280;2321;42.704;23.384;2022-09-12T02:59:47;95249.75;;;15.29;nan
4617;BME280;2321;42.704;23.384;2022-09-12T03:02:26;95244.75;;;15.32;nan
4617;BME280;2321;42.704;23.384;2022-09-12T03:05:12;95242.97;;;15.26;nan
4617;BME280;2321;42.704;23.384;2022-09-12T03:08:08;95248.56;;;15.24;nan
4617;BME280;2321;42.704;23.384;2022-09-12T03:10:46;95245.88;;;15.24;nan
4617;BME280;2321;42.704;23.384;2022-09-12T03:13:21;95245.06;;;15.24;nan
4617;BME280;2321;42.704;23.384;2022-09-12T03:15:58;95248.03;;;15.16;nan
4617;BME280;2321;42.704;23.384;2022-09-12T03:18:44;95248.13;;;15.09;nan
4617;BME280;2321;42.704;23.384;2022-09-12T03:21:21;95245.31;;;15.03;nan
4617;BME280;2321;42.704;23.384;2022-09-12T03:24:11;95250.53;;;14.98;nan
4617;BME280;2321;42.704;23.384;2022-09-12T03:26:43;95240.47;;;14.94;nan
4617;BME280;2321;42.704;23.384;2022-09-12T03:29:12;95248.94;;;14.90;nan
4617;BME280;2321;42.704;23.384;2022-09-12T03:31:48;95250.84;;;14.90;nan
4617;BME280;2321;42.704;23.384;2022-09-12T03:34:17;95251.88;;;14.89;nan
4617;BME280;2321;42.704;23.384;2022-09-12T03:36:44;95249.00;;;14.84;nan
4617;BME280;2321;42.704;23.384;2022-09-12T03:39:12;95252.50;;;14.84;nan
4617;BME280;2321;42.704;23.384;2022-09-12T03:41:39;95251.91;;;14.82;nan
4617;BME280;2321;42.704;23.384;2022-09-12T03:44:06;95248.84;;;14.78;nan
4617;BME280;2321;42.704;23.384;2022-09-12T03:46:33;95240.34;;;14.81;nan
4617;BME280;2321;42.704;23.384;2022-09-12T03:49:00;95244.91;;;14.81;nan
4617;BME280;2321;42.704;23.384;2022-09-12T03:51:28;95246.97;;;14.79;nan
4617;BME280;2321;42.704;23.384;2022-09-12T03:53:55;95243.84;;;14.82;nan
4617;BME280;2321;42.704;23.384;2022-09-12T03:56:23;95247.75;;;14.86;nan
4617;BME280;2321;42.704;23.384;2022-09-12T03:58:50;95250.03;;;14.82;nan
4617;BME280;2321;42.704;23.384;2022-09-12T04:01:18;95243.66;;;14.84;nan
4617;BME280;2321;42.704;23.384;2022-09-12T04:03:46;95246.31;;;14.84;nan
4617;BME280;2321;42.704;23.384;2022-09-12T04:06:15;95252.13;;;14.80;nan
4617;BME280;2321;42.704;23.384;2022-09-12T04:08:47;95246.31;;;14.84;nan
4617;BME280;2321;42.704;23.384;2022-09-12T04:11:16;95243.66;;;14.84;nan
4617;BME280;2321;42.704;23.384;2022-09-12T04:13:44;95246.91;;;14.86;nan
4617;BME280;2321;42.704;23.384;2022-09-12T04:16:12;95258.75;;;14.78;nan
4617;BME280;2321;42.704;23.384;2022-09-12T04:18:39;95246.59;;;14.75;nan
4617;BME280;2321;42.704;23.384;2022-09-12T04:21:08;95259.13;;;14.81;nan
4617;BME280;2321;42.704;23.384;2022-09-12T04:23:35;95262.03;;;14.80;nan
4617;BME280;2321;42.704;23.384;2022-09-12T04:26:05;95250.78;;;14.71;nan
4617;BME280;2321;42.704;23.384;2022-09-12T04:28:32;95267.38;;;14.80;nan
4617;BME280;2321;42.704;23.384;2022-09-12T04:31:01;95265.53;;;14.80;nan
4617;BME280;2321;42.704;23.384;2022-09-12T04:33:28;95267.53;;;14.85;nan
4617;BME280;2321;42.704;23.384;2022-09-12T04:35:55;95269.38;;;14.85;nan
4617;BME280;2321;42.704;23.384;2022-09-12T04:38:22;95252.50;;;14.84;nan
4617;BME280;2321;42.704;23.384;2022-09-12T04:40:49;95258.66;;;14.85;nan
4617;BME280;2321;42.704;23.384;2022-09-12T04:43:18;95256.81;;;14.85;nan
4617;BME280;2321;42.704;23.384;2022-09-12T04:45:44;95261.59;;;14.83;nan
4617;BME280;2321;42.704;23.384;2022-09-12T04:48:11;95264.03;;;14.85;nan
4617;BME280;2321;42.704;23.384;2022-09-12T04:50:39;95271.22;;;14.91;nan
4617;BME280;2321;42.704;23.384;2022-09-12T04:53:07;95269.94;;;14.94;nan
4617;BME280;2321;42.704;23.384;2022-09-12T04:55:34;95278.22;;;14.92;nan
4617;BME280;2321;42.704;23.384;2022-09-12T04:58:01;95272.19;;;14.97;nan
4617;BME280;2321;42.704;23.384;2022-09-12T05:00:29;95273.38;;;15.01;nan
4617;BME280;2321;42.704;23.384;2022-09-12T05:02:56;95268.97;;;15.07;nan
4617;BME280;2321;42.704;23.384;2022-09-12T05:05:23;95270.38;;;15.09;nan
4617;BME280;2321;42.704;23.384;2022-09-12T05:07:50;95272.63;;;15.12;nan
4617;BME280;2321;42.704;23.384;2022-09-12T05:10:17;95267.50;;;15.11;nan
4617;BME280;2321;42.704;23.384;2022-09-12T05:12:44;95270.56;;;15.14;nan
4617;BME280;2321;42.704;23.384;2022-09-12T05:15:11;95275.25;;;15.19;nan
4617;BME280;2321;42.704;23.384;2022-09-12T05:17:40;95278.50;;;15.21;nan
4617;BME280;2321;42.704;23.384;2022-09-12T05:20:07;95278.66;;;15.27;nan
4617;BME280;2321;42.704;23.384;2022-09-12T05:22:37;95274.03;;;15.34;nan
4617;BME280;2321;42.704;23.384;2022-09-12T05:25:05;95271.84;;;15.43;nan
4617;BME280;2321;42.704;23.384;2022-09-12T05:27:32;95272.81;;;15.49;nan
4617;BME280;2321;42.704;23.384;2022-09-12T05:29:59;95272.13;;;15.53;nan
4617;BME280;2321;42.704;23.384;2022-09-12T05:32:30;95275.41;;;15.55;nan
4617;BME280;2321;42.704;23.384;2022-09-12T05:34:58;95277.56;;;15.65;nan
4617;BME280;2321;42.704;23.384;2022-09-12T05:37:25;95287.38;;;15.72;nan
4617;BME280;2321;42.704;23.384;2022-09-12T05:39:53;95289.22;;;15.71;nan
4617;BME280;2321;42.704;23.384;2022-09-12T05:42:20;95287.38;;;15.72;nan
4617;BME280;2321;42.704;23.384;2022-09-12T05:44:48;95284.91;;;15.70;nan
4617;BME280;2321;42.704;23.384;2022-09-12T05:47:14;95285.53;;;15.72;nan
4617;BME280;2321;42.704;23.384;2022-09-12T05:49:43;95280.06;;;15.79;nan
4617;BME280;2321;42.704;23.384;2022-09-12T05:52:13;95278.53;;;15.83;nan
4617;BME280;2321;42.704;23.384;2022-09-12T05:54:40;95282.66;;;15.98;nan
4617;BME280;2321;42.704;23.384;2022-09-12T05:57:07;95268.09;;;16.06;nan
4617;BME280;2321;42.704;23.384;2022-09-12T05:59:34;95256.34;;;16.07;nan
4617;BME280;2321;42.704;23.384;2022-09-12T06:02:01;95258.44;;;16.17;nan
4617;BME280;2321;42.704;23.384;2022-09-12T06:04:28;95268.72;;;16.20;nan
4617;BME280;2321;42.704;23.384;2022-09-12T06:06:55;95267.47;;;16.34;nan
4617;BME280;2321;42.704;23.384;2022-09-12T06:09:24;95260.69;;;16.44;nan
4617;BME280;2321;42.704;23.384;2022-09-12T06:11:52;95258.81;;;16.57;nan
4617;BME280;2321;42.704;23.384;2022-09-12T06:14:20;95261.41;;;16.63;nan
4617;BME280;2321;42.704;23.384;2022-09-12T06:16:47;95254.72;;;16.66;nan
4617;BME280;2321;42.704;23.384;2022-09-12T06:19:16;95259.75;;;16.74;nan
4617;BME280;2321;42.704;23.384;2022-09-12T06:21:44;95263.50;;;16.85;nan
4617;BME280;2321;42.704;23.384;2022-09-12T06:24:12;95263.94;;;16.94;nan
4617;BME280;2321;42.704;23.384;2022-09-12T06:26:41;95273.88;;;17.06;nan
4617;BME280;2321;42.704;23.384;2022-09-12T06:29:09;95281.94;;;17.18;nan
4617;BME280;2321;42.704;23.384;2022-09-12T06:31:39;95281.09;;;17.17;nan
4617;BME280;2321;42.704;23.384;2022-09-12T06:34:09;95279.69;;;17.15;nan
4617;BME280;2321;42.704;23.384;2022-09-12T06:36:38;95284.84;;;17.16;nan
4617;BME280;2321;42.704;23.384;2022-09-12T06:39:08;95282.75;;;17.18;nan
4617;BME280;2321;42.704;23.384;2022-09-12T06:41:36;95285.44;;;17.18;nan
4617;BME280;2321;42.704;23.384;2022-09-12T06:44:04;95283.69;;;17.24;nan
4617;BME280;2321;42.704;23.384;2022-09-12T06:46:32;95296.91;;;17.26;nan
4617;BME280;2321;42.704;23.384;2022-09-12T06:49:00;95300.06;;;17.23;nan
4617;BME280;2321;42.704;23.384;2022-09-12T06:51:27;95292.91;;;17.16;nan
4617;BME280;2321;42.704;23.384;2022-09-12T06:53:55;95297.94;;;17.13;nan
4617;BME280;2321;42.704;23.384;2022-09-12T06:56:24;95298.19;;;17.11;nan
4617;BME280;2321;42.704;23.384;2022-09-12T06:58:52;95302.50;;;17.12;nan
4617;BME280;2321;42.704;23.384;2022-09-12T07:01:23;95299.59;;;17.14;nan
4617;BME280;2321;42.704;23.384;2022-09-12T07:03:52;95298.78;;;17.25;nan
4617;BME280;2321;42.704;23.384;2022-09-12T07:06:21;95298.19;;;17.35;nan
4617;BME280;2321;42.704;23.384;2022-09-12T07:08:50;95299.19;;;17.46;nan
4617;BME280;2321;42.704;23.384;2022-09-12T07:11:19;95303.56;;;17.64;nan
4617;BME280;2321;42.704;23.384;2022-09-12T07:13:48;95309.59;;;17.84;nan
4617;BME280;2321;42.704;23.384;2022-09-12T07:16:16;95312.72;;;17.93;nan
4617;BME280;2321;42.704;23.384;2022-09-12T07:18:49;95300.56;;;18.07;nan
4617;BME280;2321;42.704;23.384;2022-09-12T07:21:16;95315.03;;;18.18;nan
4617;BME280;2321;42.704;23.384;2022-09-12T07:23:43;95303.09;;;18.26;nan
4617;BME280;2321;42.704;23.384;2022-09-12T07:26:12;95308.06;;;18.35;nan
4617;BME280;2321;42.704;23.384;2022-09-12T07:28:39;95291.91;;;18.52;nan
4617;BME280;2321;42.704;23.384;2022-09-12T07:31:08;95299.81;;;18.59;nan
4617;BME280;2321;42.704;23.384;2022-09-12T07:33:36;95302.50;;;18.59;nan
4617;BME280;2321;42.704;23.384;2022-09-12T07:36:06;95298.25;;;18.63;nan
4617;BME280;2321;42.704;23.384;2022-09-12T07:38:35;95301.03;;;18.68;nan
4617;BME280;2321;42.704;23.384;2022-09-12T07:41:09;95301.25;;;18.84;nan
4617;BME280;2321;42.704;23.384;2022-09-12T07:43:36;95301.47;;;19.00;nan
4617;BME280;2321;42.704;23.384;2022-09-12T07:46:03;95305.44;;;19.14;nan
4617;BME280;2321;42.704;23.384;2022-09-12T07:48:31;95297.22;;;19.21;nan
4617;BME280;2321;42.704;23.384;2022-09-12T07:50:59;95294.06;;;19.30;nan
4617;BME280;2321;42.704;23.384;2022-09-12T07:53:30;95298.22;;;19.37;nan
4617;BME280;2321;42.704;23.384;2022-09-12T07:55:58;95298.28;;;19.43;nan
4617;BME280;2321;42.704;23.384;2022-09-12T07:58:27;95300.34;;;19.35;nan
4617;BME280;2321;42.704;23.384;2022-09-12T08:01:01;95299.13;;;19.26;nan
4617;BME280;2321;42.704;23.384;2022-09-12T08:03:28;95306.59;;;19.19;nan
4617;BME280;2321;42.704;23.384;2022-09-12T08:06:01;95295.56;;;19.20;nan
4617;BME280;2321;42.704;23.384;2022-09-12T08:08:30;95296.94;;;19.23;nan
4617;BME280;2321;42.704;23.384;2022-09-12T08:10:57;95296.53;;;19.31;nan
4617;BME280;2321;42.704;23.384;2022-09-12T08:13:24;95305.56;;;19.42;nan
4617;BME280;2321;42.704;23.384;2022-09-12T08:15:56;95296.25;;;19.55;nan
4617;BME280;2321;42.704;23.384;2022-09-12T08:18:24;95303.31;;;19.56;nan
4617;BME280;2321;42.704;23.384;2022-09-12T08:20:56;95296.50;;;19.54;nan
4617;BME280;2321;42.704;23.384;2022-09-12T08:23:22;95302.28;;;19.63;nan
4617;BME280;2321;42.704;23.384;2022-09-12T08:25:54;95301.84;;;19.71;nan
4617;BME280;2321;42.704;23.384;2022-09-12T08:28:21;95299.97;;;19.72;nan
4617;BME280;2321;42.704;23.384;2022-09-12T08:30:48;95305.16;;;19.78;nan
4617;BME280;2321;42.704;23.384;2022-09-12T08:33:15;95296.34;;;19.88;nan
4617;BME280;2321;42.704;23.384;2022-09-12T08:35:42;95290.22;;;19.98;nan
4617;BME280;2321;42.704;23.384;2022-09-12T08:38:09;95282.47;;;20.07;nan
4617;BME280;2321;42.704;23.384;2022-09-12T08:40:43;95286.03;;;20.13;nan
4617;BME280;2321;42.704;23.384;2022-09-12T08:43:25;95293.84;;;20.09;nan
4617;BME280;2321;42.704;23.384;2022-09-12T08:46:01;95286.19;;;20.01;nan
4617;BME280;2321;42.704;23.384;2022-09-12T08:48:32;95296.69;;;19.97;nan
4617;BME280;2321;42.704;23.384;2022-09-12T08:51:00;95292.47;;;19.79;nan
4617;BME280;2321;42.704;23.384;2022-09-12T08:53:30;95287.53;;;19.70;nan
4617;BME280;2321;42.704;23.384;2022-09-12T08:56:03;95290.69;;;19.62;nan
4617;BME280;2321;42.704;23.384;2022-09-12T08:58:38;95282.78;;;19.55;nan
4617;BME280;2321;42.704;23.384;2022-09-12T09:01:08;95278.50;;;19.59;nan
4617;BME280;2321;42.704;23.384;2022-09-12T09:04:07;95279.16;;;19.72;nan
4617;BME280;2321;42.704;23.384;2022-09-12T09:06:52;95278.06;;;19.96;nan
4617;BME280;2321;42.704;23.384;2022-09-12T09:09:30;95276.00;;;20.08;nan
4617;BME280;2321;42.704;23.384;2022-09-12T09:12:08;95276.28;;;20.12;nan
4617;BME280;2321;42.704;23.384;2022-09-12T09:15:06;95275.94;;;20.03;nan
4617;BME280;2321;42.704;23.384;2022-09-12T09:17:41;95270.69;;;19.91;nan
4617;BME280;2321;42.704;23.384;2022-09-12T09:20:16;95269.13;;;19.95;nan
4617;BME280;2321;42.704;23.384;2022-09-12T09:22:49;95274.19;;;20.14;nan
4617;BME280;2321;42.704;23.384;2022-09-12T09:25:21;95263.97;;;20.21;nan
4617;BME280;2321;42.704;23.384;2022-09-12T09:27:55;95262.53;;;20.41;nan
4617;BME280;2321;42.704;23.384;2022-09-12T09:30:25;95256.09;;;20.53;nan
4617;BME280;2321;42.704;23.384;2022-09-12T09:32:54;95264.03;;;20.65;nan
4617;BME280;2321;42.704;23.384;2022-09-12T09:35:30;95255.91;;;20.65;nan
4617;BME280;2321;42.704;23.384;2022-09-12T09:38:01;95255.94;;;20.70;nan
4617;BME280;2321;42.704;23.384;2022-09-12T09:40:39;95246.78;;;20.76;nan
4617;BME280;2321;42.704;23.384;2022-09-12T09:43:17;95243.81;;;20.73;nan
4617;BME280;2321;42.704;23.384;2022-09-12T09:45:48;95252.66;;;20.63;nan
4617;BME280;2321;42.704;23.384;2022-09-12T09:48:18;95250.16;;;20.51;nan
4617;BME280;2321;42.704;23.384;2022-09-12T09:50:47;95247.38;;;20.45;nan
4617;BME280;2321;42.704;23.384;2022-09-12T09:53:27;95237.16;;;20.48;nan
4617;BME280;2321;42.704;23.384;2022-09-12T09:55:55;95248.31;;;20.62;nan
4617;BME280;2321;42.704;23.384;2022-09-12T09:58:30;95239.69;;;20.65;nan
4617;BME280;2321;42.704;23.384;2022-09-12T10:01:00;95247.56;;;20.72;nan
4617;BME280;2321;42.704;23.384;2022-09-12T10:03:32;95235.41;;;20.69;nan
4617;BME280;2321;42.704;23.384;2022-09-12T10:06:01;95237.88;;;20.76;nan
4617;BME280;2321;42.704;23.384;2022-09-12T10:08:33;95226.28;;;20.86;nan
4617;BME280;2321;42.704;23.384;2022-09-12T10:11:03;95225.59;;;21.06;nan
4617;BME280;2321;42.704;23.384;2022-09-12T10:13:39;95231.31;;;21.15;nan
4617;BME280;2321;42.704;23.384;2022-09-12T10:16:18;95234.00;;;21.10;nan
4617;BME280;2321;42.704;23.384;2022-09-12T10:18:47;95224.47;;;21.02;nan
4617;BME280;2321;42.704;23.384;2022-09-12T10:21:33;95228.63;;;21.20;nan
4617;BME280;2321;42.704;23.384;2022-09-12T10:24:13;95238.44;;;21.37;nan
4617;BME280;2321;42.704;23.384;2022-09-12T10:26:48;95233.88;;;21.48;nan
4617;BME280;2321;42.704;23.384;2022-09-12T10:29:18;95231.69;;;21.45;nan
4617;BME280;2321;42.704;23.384;2022-09-12T10:31:52;95230.59;;;21.41;nan
4617;BME280;2321;42.704;23.384;2022-09-12T10:34:26;95238.47;;;21.42;nan
4617;BME280;2321;42.704;23.384;2022-09-12T10:37:03;95240.09;;;21.49;nan
4617;BME280;2321;42.704;23.384;2022-09-12T10:39:32;95243.06;;;21.47;nan
4617;BME280;2321;42.704;23.384;2022-09-12T10:42:00;95237.13;;;21.50;nan
4617;BME280;2321;42.704;23.384;2022-09-12T10:44:30;95232.56;;;21.61;nan
4617;BME280;2321;42.704;23.384;2022-09-12T10:49:44;95231.78;;;21.76;nan
4617;BME280;2321;42.704;23.384;2022-09-12T10:52:21;95237.19;;;21.82;nan
4617;BME280;2321;42.704;23.384;2022-09-12T10:54:48;95241.50;;;21.72;nan
4617;BME280;2321;42.704;23.384;2022-09-12T10:57:34;95234.19;;;21.73;nan
4617;BME280;2321;42.704;23.384;2022-09-12T11:00:11;95236.94;;;21.88;nan
4617;BME280;2321;42.704;23.384;2022-09-12T11:02:49;95235.06;;;21.94;nan
4617;BME280;2321;42.704;23.384;2022-09-12T11:05:25;95240.72;;;21.82;nan
4617;BME280;2321;42.704;23.384;2022-09-12T11:08:08;95225.25;;;21.77;nan
4617;BME280;2321;42.704;23.384;2022-09-12T11:10:42;95241.84;;;21.92;nan
4617;BME280;2321;42.704;23.384;2022-09-12T11:13:24;95234.00;;;22.01;nan
4617;BME280;2321;42.704;23.384;2022-09-12T11:16:05;95242.06;;;21.85;nan
4617;BME280;2321;42.704;23.384;2022-09-12T11:18:50;95233.38;;;21.72;nan
4617;BME280;2321;42.704;23.384;2022-09-12T11:21:33;95242.28;;;21.57;nan
4617;BME280;2321;42.704;23.384;2022-09-12T11:27:20;95240.94;;;21.49;nan
4617;BME280;2321;42.704;23.384;2022-09-12T11:29:51;95232.81;;;21.54;nan
4617;BME280;2321;42.704;23.384;2022-09-12T11:35:23;95256.66;;;21.52;nan
4617;BME280;2321;42.704;23.384;2022-09-12T11:41:01;95256.53;;;21.31;nan
4617;BME280;2321;42.704;23.384;2022-09-12T11:43:35;95248.16;;;21.28;nan
4617;BME280;2321;42.704;23.384;2022-09-12T11:46:09;95254.94;;;21.25;nan
4617;BME280;2321;42.704;23.384;2022-09-12T11:48:43;95251.66;;;21.23;nan
4617;BME280;2321;42.704;23.384;2022-09-12T11:51:18;95239.75;;;21.29;nan
4617;BME280;2321;42.704;23.384;2022-09-12T11:53:56;95236.53;;;21.38;nan
4617;BME280;2321;42.704;23.384;2022-09-12T11:56:24;95241.47;;;21.46;nan
4617;BME280;2321;42.704;23.384;2022-09-12T11:58:54;95223.31;;;21.47;nan
4617;BME280;2321;42.704;23.384;2022-09-12T12:01:26;95247.13;;;21.50;nan
4617;BME280;2321;42.704;23.384;2022-09-12T12:03:57;95235.47;;;21.44;nan
4617;BME280;2321;42.704;23.384;2022-09-12T12:06:31;95237.94;;;21.51;nan
4617;BME280;2321;42.704;23.384;2022-09-12T12:08:59;95238.50;;;21.58;nan
4617;BME280;2321;42.704;23.384;2022-09-12T12:11:28;95230.09;;;21.60;nan
4617;BME280;2321;42.704;23.384;2022-09-12T12:13:59;95232.03;;;21.75;nan
4617;BME280;2321;42.704;23.384;2022-09-12T12:16:29;95225.59;;;21.92;nan
4617;BME280;2321;42.704;23.384;2022-09-12T12:18:58;95228.25;;;21.76;nan
4617;BME280;2321;42.704;23.384;2022-09-12T12:21:37;95231.72;;;21.55;nan
4617;BME280;2321;42.704;23.384;2022-09-12T12:24:15;95226.03;;;21.52;nan
4617;BME280;2321;42.704;23.384;2022-09-12T12:26:53;95229.03;;;21.66;nan
4617;BME280;2321;42.704;23.384;2022-09-12T12:29:39;95223.94;;;21.80;nan
4617;BME280;2321;42.704;23.384;2022-09-12T12:32:23;95222.31;;;21.90;nan
4617;BME280;2321;42.704;23.384;2022-09-12T12:35:00;95225.31;;;21.93;nan
4617;BME280;2321;42.704;23.384;2022-09-12T12:37:54;95216.09;;;21.99;nan
4617;BME280;2321;42.704;23.384;2022-09-12T12:40:27;95214.47;;;22.09;nan
4617;BME280;2321;42.704;23.384;2022-09-12T12:43:14;95205.56;;;22.14;nan
4617;BME280;2321;42.704;23.384;2022-09-12T12:46:11;95215.56;;;22.13;nan
4617;BME280;2321;42.704;23.384;2022-09-12T12:49:07;95226.97;;;22.05;nan
4617;BME280;2321;42.704;23.384;2022-09-12T12:51:54;95225.31;;;22.14;nan
4617;BME280;2321;42.704;23.384;2022-09-12T12:54:54;95218.56;;;22.17;nan
4617;BME280;2321;42.704;23.384;2022-09-12T12:57:31;95212.31;;;22.11;nan
4617;BME280;2321;42.704;23.384;2022-09-12T13:00:04;95216.38;;;22.03;nan
4617;BME280;2321;42.704;23.384;2022-09-12T13:02:35;95215.56;;;21.97;nan
4617;BME280;2321;42.704;23.384;2022-09-12T13:05:05;95218.53;;;21.91;nan
4617;BME280;2321;42.704;23.384;2022-09-12T13:07:42;95219.56;;;21.84;nan
4617;BME280;2321;42.704;23.384;2022-09-12T13:10:22;95218.53;;;21.91;nan
4617;BME280;2321;42.704;23.384;2022-09-12T13:12:50;95219.31;;;21.86;nan
4617;BME280;2321;42.704;23.384;2022-09-12T13:15:46;95223.66;;;21.82;nan
4617;BME280;2321;42.704;23.384;2022-09-12T13:18:16;95220.16;;;21.86;nan
4617;BME280;2321;42.704;23.384;2022-09-12T13:20:48;95219.31;;;21.86;nan
4617;BME280;2321;42.704;23.384;2022-09-12T13:23:24;95218.53;;;21.91;nan
4617;BME280;2321;42.704;23.384;2022-09-12T13:25:55;95220.44;;;21.90;nan
4617;BME280;2321;42.704;23.384;2022-09-12T13:28:23;95211.47;;;21.90;nan
4617;BME280;2321;42.704;23.384;2022-09-12T13:30:57;95213.38;;;21.99;nan
4617;BME280;2321;42.704;23.384;2022-09-12T13:33:38;95210.13;;;22.03;nan
4617;BME280;2321;42.704;23.384;2022-09-12T13:36:22;95212.56;;;21.94;nan
4617;BME280;2321;42.704;23.384;2022-09-12T13:39:04;95215.03;;;21.95;nan
4617;BME280;2321;42.704;23.384;2022-09-12T13:44:26;95209.06;;;21.98;nan
4617;BME280;2321;42.704;23.384;2022-09-12T13:46:56;95212.31;;;22.01;nan
4617;BME280;2321;42.704;23.384;2022-09-12T13:49:28;95211.50;;;21.95;nan
4617;BME280;2321;42.704;23.384;2022-09-12T13:51:59;95213.63;;;21.77;nan
4617;BME280;2321;42.704;23.384;2022-09-12T13:54:28;95207.91;;;21.63;nan
4617;BME280;2321;42.704;23.384;2022-09-12T13:56:57;95210.88;;;21.66;nan
4617;BME280;2321;42.704;23.384;2022-09-12T13:59:25;95198.97;;;21.68;nan
4617;BME280;2321;42.704;23.384;2022-09-12T14:01:52;95204.13;;;21.69;nan
4617;BME280;2321;42.704;23.384;2022-09-12T14:04:21;95216.06;;;21.73;nan
4617;BME280;2321;42.704;23.384;2022-09-12T14:07:11;95221.72;;;21.72;nan
4617;BME280;2321;42.704;23.384;2022-09-12T14:09:41;95197.06;;;21.63;nan
4617;BME280;2321;42.704;23.384;2022-09-12T14:12:21;95211.41;;;21.63;nan
4617;BME280;2321;42.704;23.384;2022-09-12T14:14:51;95211.13;;;21.54;nan
4617;BME280;2321;42.704;23.384;2022-09-12T14:17:23;95203.25;;;21.48;nan
4617;BME280;2321;42.704;23.384;2022-09-12T14:19:54;95207.84;;;21.47;nan
4617;BME280;2321;42.704;23.384;2022-09-12T14:22:24;95209.47;;;21.38;nan
4617;BME280;2321;42.704;23.384;2022-09-12T14:24:55;95213.25;;;21.37;nan